sensor_id;sensor_type;location;lat;lon;timestamp;pressure;altitude;pressure_sealevel;temperature;humidity
60373;BME280;46216;52.220;5.134;2022-08-30T00:02:30;102399.47;;;17.28;100.00
60373;BME280;46216;52.220;5.134;2022-08-30T00:04:55;102394.19;;;17.26;100.00
60373;BME280;46216;52.220;5.134;2022-08-30T00:07:22;102400.81;;;17.22;100.00
60373;BME280;46216;52.220;5.134;2022-08-30T00:09:47;102404.69;;;17.18;100.00
60373;BME280;46216;52.220;5.134;2022-08-30T00:12:12;102397.50;;;17.19;100.00
60373;BME280;46216;52.220;5.134;2022-08-30T00:14:38;102396.38;;;17.21;100.00
60373;BME280;46216;52.220;5.134;2022-08-30T00:17:03;102392.09;;;17.19;100.00
60373;BME280;46216;52.220;5.134;2022-08-30T00:19:29;102388.66;;;17.17;100.00
60373;BME280;46216;52.220;5.134;2022-08-30T00:21:54;102384.97;;;17.18;100.00
60373;BME280;46216;52.220;5.134;2022-08-30T00:24:20;102390.97;;;17.21;100.00
60373;BME280;46216;52.220;5.134;2022-08-30T00:26:45;102385.94;;;17.17;100.00
60373;BME280;46216;52.220;5.134;2022-08-30T00:29:10;102389.72;;;17.14;100.00
60373;BME280;46216;52.220;5.134;2022-08-30T00:31:36;102386.19;;;17.14;100.00
60373;BME280;46216;52.220;5.134;2022-08-30T00:34:01;102387.91;;;17.15;100.00
60373;BME280;46216;52.220;5.134;2022-08-30T00:36:26;102388.03;;;17.13;100.00
60373;BME280;46216;52.220;5.134;2022-08-30T00:38:51;102390.09;;;17.10;100.00
60373;BME280;46216;52.220;5.134;2022-08-30T00:41:17;102379.31;;;17.10;100.00
60373;BME280;46216;52.220;5.134;2022-08-30T00:43:42;102372.56;;;17.04;100.00
60373;BME280;46216;52.220;5.134;2022-08-30T00:46:08;102375.06;;;16.94;100.00
60373;BME280;46216;52.220;5.134;2022-08-30T00:48:36;102384.13;;;16.93;100.00
60373;BME280;46216;52.220;5.134;2022-08-30T00:51:06;102385.75;;;16.96;100.00
60373;BME280;46216;52.220;5.134;2022-08-30T00:53:36;102374.00;;;16.97;100.00
60373;BME280;46216;52.220;5.134;2022-08-30T00:56:04;102387.28;;;16.87;100.00
60373;BME280;46216;52.220;5.134;2022-08-30T00:58:33;102397.22;;;16.74;100.00
60373;BME280;46216;52.220;5.134;2022-08-30T01:01:00;102409.91;;;16.85;100.00
60373;BME280;46216;52.220;5.134;2022-08-30T01:03:26;102400.75;;;16.87;100.00
60373;BME280;46216;52.220;5.134;2022-08-30T01:05:52;102410.78;;;16.85;100.00
60373;BME280;46216;52.220;5.134;2022-08-30T01:08:18;102406.50;;;16.83;100.00
60373;BME280;46216;52.220;5.134;2022-08-30T01:10:45;102400.97;;;16.84;100.00
60373;BME280;46216;52.220;5.134;2022-08-30T01:13:11;102399.41;;;16.82;100.00
60373;BME280;46216;52.220;5.134;2022-08-30T01:15:38;102395.19;;;16.77;100.00
60373;BME280;46216;52.220;5.134;2022-08-30T01:18:04;102400.69;;;16.76;100.00
60373;BME280;46216;52.220;5.134;2022-08-30T01:20:39;102400.88;;;16.73;100.00
60373;BME280;46216;52.220;5.134;2022-08-30T01:23:11;102404.38;;;16.75;100.00
60373;BME280;46216;52.220;5.134;2022-08-30T01:25:38;102394.53;;;16.74;100.00
60373;BME280;46216;52.220;5.134;2022-08-30T01:28:09;102393.78;;;16.72;100.00
60373;BME280;46216;52.220;5.134;2022-08-30T01:30:36;102406.50;;;16.70;100.00
60373;BME280;46216;52.220;5.134;2022-08-30T01:33:07;102408.22;;;16.71;100.00
60373;BME280;46216;52.220;5.134;2022-08-30T01:36:03;102401.56;;;16.64;100.00
60373;BME280;46216;52.220;5.134;2022-08-30T01:38:34;102402.66;;;16.61;100.00
60373;BME280;46216;52.220;5.134;2022-08-30T01:43:32;102411.47;;;16.63;100.00
60373;BME280;46216;52.220;5.134;2022-08-30T01:45:58;102406.94;;;16.64;100.00
60373;BME280;46216;52.220;5.134;2022-08-30T01:48:24;102405.22;;;16.63;100.00
60373;BME280;46216;52.220;5.134;2022-08-30T01:50:50;102414.28;;;16.62;100.00
60373;BME280;46216;52.220;5.134;2022-08-30T01:53:16;102409.34;;;16.55;100.00
60373;BME280;46216;52.220;5.134;2022-08-30T01:55:41;102418.19;;;16.58;100.00
60373;BME280;46216;52.220;5.134;2022-08-30T01:58:06;102430.44;;;16.62;100.00
60373;BME280;46216;52.220;5.134;2022-08-30T02:00:32;102423.56;;;16.58;100.00
60373;BME280;46216;52.220;5.134;2022-08-30T02:02:57;102418.56;;;16.64;100.00
60373;BME280;46216;52.220;5.134;2022-08-30T02:05:23;102420.53;;;16.62;100.00
60373;BME280;46216;52.220;5.134;2022-08-30T02:07:48;102422.38;;;16.62;100.00
60373;BME280;46216;52.220;5.134;2022-08-30T02:10:13;102416.00;;;16.63;100.00
60373;BME280;46216;52.220;5.134;2022-08-30T02:12:39;102415.00;;;16.64;100.00
60373;BME280;46216;52.220;5.134;2022-08-30T02:15:05;102410.41;;;16.66;100.00
60373;BME280;46216;52.220;5.134;2022-08-30T02:17:31;102412.97;;;16.67;100.00
60373;BME280;46216;52.220;5.134;2022-08-30T02:19:57;102411.47;;;16.63;100.00
60373;BME280;46216;52.220;5.134;2022-08-30T02:22:22;102410.84;;;16.60;100.00
60373;BME280;46216;52.220;5.134;2022-08-30T02:24:48;102406.22;;;16.62;100.00
60373;BME280;46216;52.220;5.134;2022-08-30T02:27:13;102412.81;;;16.58;100.00
60373;BME280;46216;52.220;5.134;2022-08-30T02:29:39;102405.44;;;16.60;100.00
60373;BME280;46216;52.220;5.134;2022-08-30T02:32:04;102404.19;;;16.52;100.00
60373;BME280;46216;52.220;5.134;2022-08-30T02:34:30;102401.16;;;16.57;100.00
60373;BME280;46216;52.220;5.134;2022-08-30T02:36:55;102405.69;;;16.56;100.00
60373;BME280;46216;52.220;5.134;2022-08-30T02:39:21;102396.13;;;16.52;100.00
60373;BME280;46216;52.220;5.134;2022-08-30T02:41:46;102400.72;;;16.50;100.00
60373;BME280;46216;52.220;5.134;2022-08-30T02:44:12;102398.28;;;16.47;100.00
60373;BME280;46216;52.220;5.134;2022-08-30T02:46:37;102395.81;;;16.44;100.00
60373;BME280;46216;52.220;5.134;2022-08-30T02:49:04;102401.06;;;16.46;100.00
60373;BME280;46216;52.220;5.134;2022-08-30T02:51:29;102398.59;;;16.43;100.00
60373;BME280;46216;52.220;5.134;2022-08-30T02:53:54;102399.47;;;16.43;100.00
60373;BME280;46216;52.220;5.134;2022-08-30T02:56:19;102399.47;;;16.43;100.00
60373;BME280;46216;52.220;5.134;2022-08-30T02:58:45;102396.06;;;16.28;100.00
60373;BME280;46216;52.220;5.134;2022-08-30T03:01:13;102397.13;;;16.26;100.00
60373;BME280;46216;52.220;5.134;2022-08-30T03:03:40;102388.63;;;16.32;100.00
60373;BME280;46216;52.220;5.134;2022-08-30T03:06:07;102385.19;;;16.30;100.00
60373;BME280;46216;52.220;5.134;2022-08-30T03:08:34;102389.47;;;16.32;100.00
60373;BME280;46216;52.220;5.134;2022-08-30T03:11:00;102388.50;;;16.33;100.00
60373;BME280;46216;52.220;5.134;2022-08-30T03:13:27;102385.81;;;16.33;100.00
60373;BME280;46216;52.220;5.134;2022-08-30T03:15:52;102385.09;;;16.31;100.00
60373;BME280;46216;52.220;5.134;2022-08-30T03:18:19;102390.25;;;16.22;100.00
60373;BME280;46216;52.220;5.134;2022-08-30T03:20:45;102388.09;;;16.27;100.00
60373;BME280;46216;52.220;5.134;2022-08-30T03:23:11;102392.53;;;16.28;100.00
60373;BME280;46216;52.220;5.134;2022-08-30T03:25:37;102394.13;;;16.30;100.00
60373;BME280;46216;52.220;5.134;2022-08-30T03:28:04;102391.97;;;16.23;100.00
60373;BME280;46216;52.220;5.134;2022-08-30T03:30:30;102387.88;;;16.30;100.00
60373;BME280;46216;52.220;5.134;2022-08-30T03:32:55;102387.13;;;16.28;100.00
60373;BME280;46216;52.220;5.134;2022-08-30T03:35:20;102385.00;;;16.20;100.00
60373;BME280;46216;52.220;5.134;2022-08-30T03:37:46;102384.88;;;16.22;100.00
60373;BME280;46216;52.220;5.134;2022-08-30T03:40:14;102384.25;;;16.18;100.00
60373;BME280;46216;52.220;5.134;2022-08-30T03:42:41;102383.38;;;16.18;100.00
60373;BME280;46216;52.220;5.134;2022-08-30T03:45:07;102385.97;;;16.19;100.00
60373;BME280;46216;52.220;5.134;2022-08-30T03:47:33;102377.59;;;16.11;100.00
60373;BME280;46216;52.220;5.134;2022-08-30T03:49:58;102387.50;;;16.11;100.00
60373;BME280;46216;52.220;5.134;2022-08-30T03:52:24;102376.94;;;16.07;100.00
60373;BME280;46216;52.220;5.134;2022-08-30T03:54:50;102375.13;;;16.08;100.00
60373;BME280;46216;52.220;5.134;2022-08-30T03:57:15;102378.44;;;16.12;100.00
60373;BME280;46216;52.220;5.134;2022-08-30T03:59:40;102381.34;;;16.08;100.00
60373;BME280;46216;52.220;5.134;2022-08-30T04:02:06;102380.38;;;16.09;100.00
60373;BME280;46216;52.220;5.134;2022-08-30T04:04:31;102388.66;;;16.06;100.00
60373;BME280;46216;52.220;5.134;2022-08-30T04:06:57;102386.44;;;16.00;100.00
60373;BME280;46216;52.220;5.134;2022-08-30T04:09:22;102388.78;;;16.05;100.00
60373;BME280;46216;52.220;5.134;2022-08-30T04:11:48;102389.13;;;16.00;100.00
60373;BME280;46216;52.220;5.134;2022-08-30T04:14:13;102383.19;;;15.95;100.00
60373;BME280;46216;52.220;5.134;2022-08-30T04:16:39;102383.94;;;15.97;100.00
60373;BME280;46216;52.220;5.134;2022-08-30T04:19:04;102387.59;;;15.96;100.00
60373;BME280;46216;52.220;5.134;2022-08-30T04:21:29;102391.16;;;15.97;100.00
60373;BME280;46216;52.220;5.134;2022-08-30T04:23:55;102399.97;;;15.99;100.00
60373;BME280;46216;52.220;5.134;2022-08-30T04:26:20;102396.34;;;16.00;100.00
60373;BME280;46216;52.220;5.134;2022-08-30T04:28:46;102396.41;;;15.98;100.00
60373;BME280;46216;52.220;5.134;2022-08-30T04:31:14;102401.16;;;15.95;100.00
60373;BME280;46216;52.220;5.134;2022-08-30T04:33:40;102399.53;;;15.92;100.00
60373;BME280;46216;52.220;5.134;2022-08-30T04:36:06;102399.66;;;15.91;100.00
60373;BME280;46216;52.220;5.134;2022-08-30T04:38:34;102405.59;;;15.83;100.00
60373;BME280;46216;52.220;5.134;2022-08-30T04:40:59;102409.44;;;15.92;100.00
60373;BME280;46216;52.220;5.134;2022-08-30T04:43:25;102405.13;;;15.89;100.00
60373;BME280;46216;52.220;5.134;2022-08-30T04:45:52;102398.16;;;15.87;100.00
60373;BME280;46216;52.220;5.134;2022-08-30T04:48:20;102406.09;;;15.88;100.00
60373;BME280;46216;52.220;5.134;2022-08-30T04:50:46;102404.06;;;15.92;100.00
60373;BME280;46216;52.220;5.134;2022-08-30T04:53:12;102400.84;;;15.87;100.00
60373;BME280;46216;52.220;5.134;2022-08-30T04:55:39;102396.63;;;15.82;100.00
60373;BME280;46216;52.220;5.134;2022-08-30T04:58:05;102411.59;;;15.87;100.00
60373;BME280;46216;52.220;5.134;2022-08-30T05:00:30;102410.97;;;15.83;100.00
60373;BME280;46216;52.220;5.134;2022-08-30T05:02:56;102417.19;;;15.83;100.00
60373;BME280;46216;52.220;5.134;2022-08-30T05:05:22;102419.75;;;15.85;100.00
60373;BME280;46216;52.220;5.134;2022-08-30T05:10:51;102416.56;;;15.80;100.00
60373;BME280;46216;52.220;5.134;2022-08-30T05:13:18;102406.94;;;15.76;100.00
60373;BME280;46216;52.220;5.134;2022-08-30T05:15:45;102414.59;;;15.82;100.00
60373;BME280;46216;52.220;5.134;2022-08-30T05:18:11;102410.53;;;15.76;100.00
60373;BME280;46216;52.220;5.134;2022-08-30T05:20:37;102409.44;;;15.79;100.00
60373;BME280;46216;52.220;5.134;2022-08-30T05:23:04;102415.00;;;15.76;100.00
60373;BME280;46216;52.220;5.134;2022-08-30T05:25:32;102423.53;;;15.82;100.00
60373;BME280;46216;52.220;5.134;2022-08-30T05:33:47;102427.31;;;15.80;100.00
60373;BME280;46216;52.220;5.134;2022-08-30T05:36:15;102431.38;;;15.85;100.00
60373;BME280;46216;52.220;5.134;2022-08-30T05:38:42;102434.72;;;15.89;100.00
60373;BME280;46216;52.220;5.134;2022-08-30T05:41:07;102429.03;;;15.94;100.00
60373;BME280;46216;52.220;5.134;2022-08-30T05:43:33;102436.34;;;16.04;100.00
60373;BME280;46216;52.220;5.134;2022-08-30T05:46:03;102441.28;;;16.11;100.00
60373;BME280;46216;52.220;5.134;2022-08-30T05:48:29;102439.34;;;16.13;100.00
60373;BME280;46216;52.220;5.134;2022-08-30T05:51:06;102442.88;;;16.13;100.00
60373;BME280;46216;52.220;5.134;2022-08-30T05:53:33;102440.44;;;16.10;100.00
60373;BME280;46216;52.220;5.134;2022-08-30T05:56:03;102440.75;;;16.18;100.00
60373;BME280;46216;52.220;5.134;2022-08-30T05:58:29;102446.75;;;16.22;100.00
60373;BME280;46216;52.220;5.134;2022-08-30T06:00:54;102451.50;;;16.31;100.00
60373;BME280;46216;52.220;5.134;2022-08-30T06:03:20;102448.25;;;16.26;100.00
60373;BME280;46216;52.220;5.134;2022-08-30T06:05:45;102445.34;;;16.29;100.00
60373;BME280;46216;52.220;5.134;2022-08-30T06:08:11;102434.66;;;16.40;100.00
60373;BME280;46216;52.220;5.134;2022-08-30T06:10:36;102436.28;;;16.43;100.00
60373;BME280;46216;52.220;5.134;2022-08-30T06:13:02;102439.41;;;16.49;100.00
60373;BME280;46216;52.220;5.134;2022-08-30T06:15:27;102439.19;;;16.52;100.00
60373;BME280;46216;52.220;5.134;2022-08-30T06:17:52;102436.34;;;16.54;100.00
60373;BME280;46216;52.220;5.134;2022-08-30T06:20:18;102436.56;;;16.64;100.00
60373;BME280;46216;52.220;5.134;2022-08-30T06:22:44;102439.38;;;16.75;100.00
60373;BME280;46216;52.220;5.134;2022-08-30T06:25:10;102431.72;;;16.69;100.00
60373;BME280;46216;52.220;5.134;2022-08-30T06:27:35;102435.34;;;16.81;100.00
60373;BME280;46216;52.220;5.134;2022-08-30T06:30:01;102432.22;;;16.87;100.00
60373;BME280;46216;52.220;5.134;2022-08-30T06:32:26;102445.28;;;16.80;100.00
60373;BME280;46216;52.220;5.134;2022-08-30T06:38:02;102446.72;;;16.97;100.00
60373;BME280;46216;52.220;5.134;2022-08-30T06:40:28;102440.13;;;17.01;100.00
60373;BME280;46216;52.220;5.134;2022-08-30T06:42:54;102441.09;;;17.00;100.00
60373;BME280;46216;52.220;5.134;2022-08-30T06:45:20;102440.19;;;17.12;100.00
60373;BME280;46216;52.220;5.134;2022-08-30T06:47:46;102435.66;;;17.13;100.00
60373;BME280;46216;52.220;5.134;2022-08-30T06:50:12;102446.94;;;17.18;100.00
60373;BME280;46216;52.220;5.134;2022-08-30T06:52:42;102441.72;;;17.27;100.00
60373;BME280;46216;52.220;5.134;2022-08-30T06:55:09;102440.00;;;17.26;100.00
60373;BME280;46216;52.220;5.134;2022-08-30T06:57:35;102433.28;;;17.32;100.00
60373;BME280;46216;52.220;5.134;2022-08-30T07:00:00;102430.25;;;17.37;100.00
60373;BME280;46216;52.220;5.134;2022-08-30T07:02:26;102431.03;;;17.50;100.00
60373;BME280;46216;52.220;5.134;2022-08-30T07:04:52;102425.50;;;17.52;100.00
60373;BME280;46216;52.220;5.134;2022-08-30T07:07:17;102421.59;;;17.56;100.00
60373;BME280;46216;52.220;5.134;2022-08-30T07:09:43;102421.97;;;17.62;100.00
60373;BME280;46216;52.220;5.134;2022-08-30T07:12:12;102418.66;;;17.47;100.00
60373;BME280;46216;52.220;5.134;2022-08-30T07:14:39;102418.94;;;17.67;100.00
60373;BME280;46216;52.220;5.134;2022-08-30T07:17:05;102413.94;;;17.73;100.00
60373;BME280;46216;52.220;5.134;2022-08-30T07:19:50;102417.28;;;17.88;100.00
60373;BME280;46216;52.220;5.134;2022-08-30T07:22:16;102417.81;;;17.93;100.00
60373;BME280;46216;52.220;5.134;2022-08-30T07:24:41;102412.66;;;18.02;100.00
60373;BME280;46216;52.220;5.134;2022-08-30T07:27:07;102408.97;;;18.03;100.00
60373;BME280;46216;52.220;5.134;2022-08-30T07:29:33;102410.19;;;18.10;100.00
60373;BME280;46216;52.220;5.134;2022-08-30T07:31:58;102410.44;;;18.18;100.00
60373;BME280;46216;52.220;5.134;2022-08-30T07:34:23;102403.94;;;18.20;100.00
60373;BME280;46216;52.220;5.134;2022-08-30T07:36:48;102394.72;;;18.23;100.00
60373;BME280;46216;52.220;5.134;2022-08-30T07:39:14;102387.88;;;18.19;100.00
60373;BME280;46216;52.220;5.134;2022-08-30T07:41:39;102391.16;;;18.34;100.00
60373;BME280;46216;52.220;5.134;2022-08-30T07:44:06;102402.56;;;18.49;100.00
60373;BME280;46216;52.220;5.134;2022-08-30T07:46:32;102394.97;;;18.42;100.00
60373;BME280;46216;52.220;5.134;2022-08-30T07:48:59;102378.88;;;18.52;100.00
60373;BME280;46216;52.220;5.134;2022-08-30T07:51:25;102381.47;;;18.42;100.00
60373;BME280;46216;52.220;5.134;2022-08-30T07:53:52;102390.28;;;18.56;100.00
60373;BME280;46216;52.220;5.134;2022-08-30T07:56:18;102366.44;;;18.61;100.00
60373;BME280;46216;52.220;5.134;2022-08-30T07:58:43;102375.28;;;18.63;100.00
60373;BME280;46216;52.220;5.134;2022-08-30T08:01:10;102381.69;;;18.73;100.00
60373;BME280;46216;52.220;5.134;2022-08-30T08:03:37;102381.19;;;18.79;100.00
60373;BME280;46216;52.220;5.134;2022-08-30T08:06:08;102384.34;;;18.84;100.00
60373;BME280;46216;52.220;5.134;2022-08-30T08:08:36;102387.53;;;18.89;100.00
60373;BME280;46216;52.220;5.134;2022-08-30T08:11:10;102394.38;;;18.94;100.00
60373;BME280;46216;52.220;5.134;2022-08-30T08:13:38;102395.59;;;19.01;100.00
60373;BME280;46216;52.220;5.134;2022-08-30T08:16:04;102397.28;;;19.02;100.00
60373;BME280;46216;52.220;5.134;2022-08-30T08:18:29;102392.16;;;18.99;100.00
60373;BME280;46216;52.220;5.134;2022-08-30T08:20:56;102386.56;;;19.11;100.00
60373;BME280;46216;52.220;5.134;2022-08-30T08:23:21;102385.13;;;19.28;100.00
60373;BME280;46216;52.220;5.134;2022-08-30T08:25:46;102387.06;;;19.37;100.00
60373;BME280;46216;52.220;5.134;2022-08-30T08:28:12;102387.41;;;19.44;100.00
60373;BME280;46216;52.220;5.134;2022-08-30T08:30:37;102386.22;;;19.37;100.00
60373;BME280;46216;52.220;5.134;2022-08-30T08:33:03;102388.84;;;19.48;100.00
60373;BME280;46216;52.220;5.134;2022-08-30T08:35:29;102383.44;;;19.48;100.00
60373;BME280;46216;52.220;5.134;2022-08-30T08:37:55;102388.00;;;19.48;100.00
60373;BME280;46216;52.220;5.134;2022-08-30T08:40:20;102386.72;;;19.52;100.00
60373;BME280;46216;52.220;5.134;2022-08-30T08:43:04;102379.69;;;19.60;100.00
60373;BME280;46216;52.220;5.134;2022-08-30T08:45:42;102388.59;;;19.72;100.00
60373;BME280;46216;52.220;5.134;2022-08-30T08:48:32;102383.38;;;19.80;100.00
60373;BME280;46216;52.220;5.134;2022-08-30T08:51:00;102395.38;;;19.88;100.00
60373;BME280;46216;52.220;5.134;2022-08-30T08:53:56;102382.25;;;19.83;100.00
60373;BME280;46216;52.220;5.134;2022-08-30T08:56:22;102386.31;;;19.98;100.00
60373;BME280;46216;52.220;5.134;2022-08-30T08:58:53;102385.19;;;20.01;100.00
60373;BME280;46216;52.220;5.134;2022-08-30T09:01:21;102385.38;;;20.09;100.00
60373;BME280;46216;52.220;5.134;2022-08-30T09:03:47;102382.38;;;20.12;100.00
60373;BME280;46216;52.220;5.134;2022-08-30T09:08:47;102383.59;;;20.29;100.00
60373;BME280;46216;52.220;5.134;2022-08-30T09:11:20;102378.75;;;20.32;100.00
60373;BME280;46216;52.220;5.134;2022-08-30T09:13:47;102376.66;;;20.46;100.00
60373;BME280;46216;52.220;5.134;2022-08-30T09:19:33;102376.78;;;20.35;100.00
60373;BME280;46216;52.220;5.134;2022-08-30T09:22:03;102370.66;;;20.42;100.00
60373;BME280;46216;52.220;5.134;2022-08-30T09:24:44;102362.59;;;20.62;100.00
60373;BME280;46216;52.220;5.134;2022-08-30T09:27:15;102357.63;;;20.67;100.00
60373;BME280;46216;52.220;5.134;2022-08-30T09:29:56;102362.19;;;20.76;100.00
60373;BME280;46216;52.220;5.134;2022-08-30T09:35:11;102355.78;;;20.96;100.00
60373;BME280;46216;52.220;5.134;2022-08-30T09:37:55;102357.63;;;21.06;100.00
60373;BME280;46216;52.220;5.134;2022-08-30T09:40:39;102358.63;;;21.14;100.00
60373;BME280;46216;52.220;5.134;2022-08-30T09:43:29;102353.22;;;21.14;100.00
60373;BME280;46216;52.220;5.134;2022-08-30T09:46:07;102354.34;;;21.21;100.00
60373;BME280;46216;52.220;5.134;2022-08-30T09:48:38;102361.19;;;21.25;100.00
60373;BME280;46216;52.220;5.134;2022-08-30T10:08:05;102349.31;;;21.56;100.00
60373;BME280;46216;52.220;5.134;2022-08-30T10:10:42;102346.91;;;21.43;100.00
60373;BME280;46216;52.220;5.134;2022-08-30T10:13:36;102354.91;;;21.54;100.00
60373;BME280;46216;52.220;5.134;2022-08-30T10:16:21;102350.31;;;21.64;100.00
60373;BME280;46216;52.220;5.134;2022-08-30T10:19:35;102350.88;;;21.58;100.00
60373;BME280;46216;52.220;5.134;2022-08-30T10:22:04;102347.88;;;21.99;100.00
60373;BME280;46216;52.220;5.134;2022-08-30T10:24:37;102344.31;;;21.98;100.00
60373;BME280;46216;52.220;5.134;2022-08-30T10:27:08;102346.53;;;22.22;100.00
60373;BME280;46216;52.220;5.134;2022-08-30T10:29:42;102348.31;;;22.31;100.00
60373;BME280;46216;52.220;5.134;2022-08-30T10:32:19;102342.31;;;22.28;100.00
60373;BME280;46216;52.220;5.134;2022-08-30T10:35:11;102338.56;;;22.38;100.00
60373;BME280;46216;52.220;5.134;2022-08-30T10:37:43;102343.22;;;22.28;100.00
60373;BME280;46216;52.220;5.134;2022-08-30T10:40:22;102342.22;;;22.47;100.00
60373;BME280;46216;52.220;5.134;2022-08-30T10:43:18;102341.31;;;22.56;100.00
60373;BME280;46216;52.220;5.134;2022-08-30T10:45:46;102340.22;;;22.49;100.00
60373;BME280;46216;52.220;5.134;2022-08-30T10:48:34;102340.22;;;22.49;100.00
60373;BME280;46216;52.220;5.134;2022-08-30T10:51:07;102341.91;;;22.86;100.00
60373;BME280;46216;52.220;5.134;2022-08-30T10:53:44;102335.84;;;22.92;100.00
60373;BME280;46216;52.220;5.134;2022-08-30T10:56:15;102349.81;;;23.07;100.00
60373;BME280;46216;52.220;5.134;2022-08-30T10:58:44;102335.09;;;22.82;100.00
60373;BME280;46216;52.220;5.134;2022-08-30T11:07:20;102330.09;;;23.31;100.00
60373;BME280;46216;52.220;5.134;2022-08-30T11:10:29;102334.94;;;23.19;100.00
60373;BME280;46216;52.220;5.134;2022-08-30T11:13:09;102328.38;;;23.56;100.00
60373;BME280;46216;52.220;5.134;2022-08-30T11:15:54;102334.97;;;23.71;100.00
60373;BME280;46216;52.220;5.134;2022-08-30T11:18:21;102323.34;;;23.43;100.00
60373;BME280;46216;52.220;5.134;2022-08-30T11:20:49;102329.03;;;23.76;100.00
60373;BME280;46216;52.220;5.134;2022-08-30T11:23:35;102337.56;;;23.81;100.00
60373;BME280;46216;52.220;5.134;2022-08-30T11:26:07;102336.59;;;23.38;100.00
60373;BME280;46216;52.220;5.134;2022-08-30T11:33:50;102333.94;;;23.98;100.00
60373;BME280;46216;52.220;5.134;2022-08-30T11:41:42;102322.97;;;24.33;100.00
60373;BME280;46216;52.220;5.134;2022-08-30T11:46:48;102318.72;;;24.38;100.00
60373;BME280;46216;52.220;5.134;2022-08-30T11:52:10;102325.06;;;23.96;100.00
60373;BME280;46216;52.220;5.134;2022-08-30T11:57:30;102316.00;;;24.38;100.00
60373;BME280;46216;52.220;5.134;2022-08-30T12:02:45;102313.66;;;24.43;100.00
60373;BME280;46216;52.220;5.134;2022-08-30T12:05:48;102297.34;;;24.68;100.00
60373;BME280;46216;52.220;5.134;2022-08-30T12:11:51;102293.78;;;24.92;98.47
60373;BME280;46216;52.220;5.134;2022-08-30T12:13:55;102291.88;;;24.68;99.26
60373;BME280;46216;52.220;5.134;2022-08-30T12:16:42;102308.84;;;24.37;100.00
60373;BME280;46216;52.220;5.134;2022-08-30T12:19:29;102301.44;;;24.64;100.00
60373;BME280;46216;52.220;5.134;2022-08-30T12:22:02;102291.88;;;24.68;100.00
60373;BME280;46216;52.220;5.134;2022-08-30T12:24:37;102296.53;;;24.25;100.00
60373;BME280;46216;52.220;5.134;2022-08-30T12:27:27;102300.06;;;24.76;100.00
60373;BME280;46216;52.220;5.134;2022-08-30T12:29:58;102284.75;;;24.83;100.00
60373;BME280;46216;52.220;5.134;2022-08-30T12:32:26;102290.88;;;25.26;100.00
60373;BME280;46216;52.220;5.134;2022-08-30T12:34:54;102293.75;;;25.41;99.68
60373;BME280;46216;52.220;5.134;2022-08-30T12:37:29;102284.69;;;25.48;97.91
60373;BME280;46216;52.220;5.134;2022-08-30T12:40:23;102285.38;;;25.42;99.44
60373;BME280;46216;52.220;5.134;2022-08-30T12:43:23;102277.88;;;25.44;100.00
60373;BME280;46216;52.220;5.134;2022-08-30T12:45:50;102288.72;;;25.61;100.00
60373;BME280;46216;52.220;5.134;2022-08-30T12:48:19;102286.00;;;25.69;100.00
60373;BME280;46216;52.220;5.134;2022-08-30T12:50:46;102288.69;;;25.85;100.00
60373;BME280;46216;52.220;5.134;2022-08-30T12:53:32;102290.75;;;25.75;97.23
60373;BME280;46216;52.220;5.134;2022-08-30T12:56:02;102280.03;;;26.05;98.80
60373;BME280;46216;52.220;5.134;2022-08-30T12:58:51;102285.41;;;25.90;98.19
60373;BME280;46216;52.220;5.134;2022-08-30T13:04:22;102266.81;;;25.77;98.52
60373;BME280;46216;52.220;5.134;2022-08-30T13:07:00;102272.50;;;25.67;99.50
60373;BME280;46216;52.220;5.134;2022-08-30T13:09:32;102278.03;;;25.51;99.62
60373;BME280;46216;52.220;5.134;2022-08-30T13:11:59;102274.47;;;25.42;99.28
60373;BME280;46216;52.220;5.134;2022-08-30T13:14:41;102263.84;;;25.56;100.00
60373;BME280;46216;52.220;5.134;2022-08-30T13:19:36;102265.94;;;25.45;96.74
60373;BME280;46216;52.220;5.134;2022-08-30T13:22:03;102262.38;;;25.84;96.25
60373;BME280;46216;52.220;5.134;2022-08-30T13:24:28;102264.50;;;26.05;96.45
60373;BME280;46216;52.220;5.134;2022-08-30T13:26:55;102252.41;;;26.00;92.54
60373;BME280;46216;52.220;5.134;2022-08-30T13:29:25;102252.63;;;25.90;91.05
60373;BME280;46216;52.220;5.134;2022-08-30T13:31:51;102247.16;;;26.21;93.02
60373;BME280;46216;52.220;5.134;2022-08-30T13:34:17;102240.81;;;25.98;89.25
60373;BME280;46216;52.220;5.134;2022-08-30T13:36:49;102243.88;;;26.03;85.26
60373;BME280;46216;52.220;5.134;2022-08-30T13:39:15;102243.88;;;26.03;86.57
60373;BME280;46216;52.220;5.134;2022-08-30T13:41:41;102241.16;;;25.94;87.53
60373;BME280;46216;52.220;5.134;2022-08-30T13:44:07;102246.19;;;25.75;85.86
60373;BME280;46216;52.220;5.134;2022-08-30T13:46:32;102241.25;;;25.70;86.60
60373;BME280;46216;52.220;5.134;2022-08-30T13:49:07;102250.88;;;25.58;82.34
60373;BME280;46216;52.220;5.134;2022-08-30T13:51:33;102249.59;;;25.77;84.81
60373;BME280;46216;52.220;5.134;2022-08-30T13:53:59;102245.50;;;25.81;84.53
60373;BME280;46216;52.220;5.134;2022-08-30T13:56:28;102238.50;;;25.78;87.06
60373;BME280;46216;52.220;5.134;2022-08-30T13:58:57;102251.78;;;25.89;94.24
60373;BME280;46216;52.220;5.134;2022-08-30T14:01:26;102249.50;;;25.54;89.90
60373;BME280;46216;52.220;5.134;2022-08-30T14:03:51;102248.81;;;25.68;89.04
60373;BME280;46216;52.220;5.134;2022-08-30T14:06:17;102244.50;;;25.82;89.29
60373;BME280;46216;52.220;5.134;2022-08-30T14:08:42;102233.03;;;25.86;90.55